Time;durP1;ratioP1;P1;durP2;ratioP2;P2;SDS_P1;SDS_P2;PMS_P1;PMS_P2;Temp;Humidity;BMP_temperature;BMP_pressure;BME280_temperature;BME280_humidity;BME280_pressure;Samples;Min_cycle;Max_cycle;Signal;HPM_P1;HPM_P2
2022/05/05 00:00:02;;;;;;;8.10;2.45;;;14.00;71.70;;;;;;10443747;28;20630;-57
2022/05/05 00:05:04;;;;;;;4.03;2.65;;;14.00;71.70;;;;;;10443423;28;20017;-57
2022/05/05 00:14:23;;;;;;;4.70;2.63;;;13.90;71.70;;;;;;10447561;28;20511;-57
2022/05/05 00:15:26;;;;;;;4.65;2.55;;;13.90;71.80;;;;;;10449203;28;20052;-57
2022/05/05 00:20:28;;;;;;;4.05;2.42;;;13.90;71.80;;;;;;10451644;28;20086;-57
2022/05/05 00:25:28;;;;;;;7.00;2.88;;;13.90;72.40;;;;;;10451369;28;20481;-56
2022/05/05 00:30:29;;;;;;;8.60;3.00;;;13.80;71.70;;;;;;10451063;28;20144;-57
2022/05/05 00:35:30;;;;;;;5.55;2.70;;;13.80;71.70;;;;;;10450913;28;20029;-57
2022/05/05 00:40:31;;;;;;;4.57;2.58;;;13.80;71.80;;;;;;10451061;28;20040;-57
2022/05/05 00:45:32;;;;;;;4.80;2.75;;;13.80;71.80;;;;;;10450530;28;20127;-57
2022/05/05 00:50:34;;;;;;;5.22;2.47;;;13.70;71.70;;;;;;10449890;28;20045;-57
2022/05/05 00:55:39;;;;;;;7.28;2.65;;;13.70;71.70;;;;;;10450124;28;20386;-57
2022/05/05 01:00:40;;;;;;;7.68;2.70;;;13.70;71.70;;;;;;10449960;28;20438;-54
2022/05/05 01:05:41;;;;;;;6.13;2.80;;;13.60;71.70;;;;;;10450010;28;20029;-57
2022/05/05 01:10:41;;;;;;;5.13;2.97;;;13.60;71.70;;;;;;10449448;28;20850;-56
2022/05/05 01:15:43;;;;;;;6.15;2.70;;;13.60;71.70;;;;;;10449382;28;20072;-56
2022/05/05 01:20:46;;;;;;;4.97;3.00;;;13.60;71.70;;;;;;10449734;28;20045;-58
2022/05/05 01:31:12;;;;;;;4.53;2.38;;;13.60;71.80;;;;;;10430271;28;20107;-56
2022/05/05 01:36:12;;;;;;;5.70;2.75;;;13.50;71.70;;;;;;10449101;28;20056;-55
2022/05/05 01:41:14;;;;;;;4.95;2.40;;;13.50;71.70;;;;;;10448154;28;20067;-56
2022/05/05 01:46:15;;;;;;;4.63;2.72;;;13.60;71.80;;;;;;10447916;28;20089;-56
2022/05/05 01:51:15;;;;;;;5.00;2.90;;;13.40;72.30;;;;;;10447685;28;20101;-57
2022/05/05 01:56:16;;;;;;;3.58;2.30;;;13.40;71.70;;;;;;10447845;28;20043;-56
2022/05/05 02:01:17;;;;;;;5.40;2.55;;;13.40;72.30;;;;;;10438794;28;20029;-57
2022/05/05 02:06:18;;;;;;;8.05;2.80;;;13.40;71.80;;;;;;10447155;28;20040;-57
2022/05/05 02:11:18;;;;;;;4.47;2.42;;;13.30;71.70;;;;;;10446365;28;20040;-57
2022/05/05 02:16:20;;;;;;;7.30;2.60;;;13.30;71.80;;;;;;10446585;28;20103;-57
2022/05/05 02:21:21;;;;;;;4.93;2.40;;;13.30;71.80;;;;;;10446185;28;20124;-57
2022/05/05 02:26:21;;;;;;;4.93;2.83;;;13.30;71.80;;;;;;10446211;28;20029;-56
2022/05/05 02:31:22;;;;;;;6.10;2.60;;;13.30;71.90;;;;;;10445747;28;20192;-57
2022/05/05 02:41:42;;;;;;;6.13;2.58;;;13.20;71.90;;;;;;10434874;28;20029;-56
2022/05/05 02:46:43;;;;;;;5.30;2.72;;;13.20;71.90;;;;;;10446540;28;20028;-56
2022/05/05 02:51:45;;;;;;;4.68;2.70;;;13.20;72.00;;;;;;10445503;28;20403;-57
2022/05/05 02:56:45;;;;;;;6.00;2.17;;;13.10;72.00;;;;;;10445473;28;20276;-57
2022/05/05 03:01:46;;;;;;;7.43;2.97;;;13.10;72.00;;;;;;10445303;28;20087;-56
2022/05/05 03:06:47;;;;;;;5.40;2.72;;;13.10;72.00;;;;;;10445379;28;20021;-57
2022/05/05 03:11:48;;;;;;;5.53;2.70;;;13.10;72.00;;;;;;10445042;28;20036;-57
2022/05/05 03:16:48;;;;;;;4.25;2.58;;;13.00;72.00;;;;;;10427636;28;20041;-55
2022/05/05 03:21:49;;;;;;;5.78;2.55;;;13.00;72.00;;;;;;10445171;28;20036;-57
2022/05/05 03:26:50;;;;;;;5.90;3.05;;;13.00;72.20;;;;;;10444418;28;20116;-56
2022/05/05 03:31:50;;;;;;;4.20;2.72;;;12.90;72.10;;;;;;10444346;28;20075;-56
2022/05/05 03:36:51;;;;;;;8.07;3.13;;;12.90;72.10;;;;;;10444186;28;20030;-56
2022/05/05 03:41:53;;;;;;;7.25;2.85;;;12.90;72.20;;;;;;10444685;28;20029;-59
2022/05/05 03:46:54;;;;;;;4.00;2.53;;;12.90;72.20;;;;;;10451842;28;20055;-57
2022/05/05 03:51:58;;;;;;;3.90;2.60;;;12.80;72.20;;;;;;10452007;28;20075;-57
2022/05/05 03:56:58;;;;;;;5.72;2.95;;;12.80;72.20;;;;;;10450929;28;20515;-53
2022/05/05 04:01:59;;;;;;;7.38;3.13;;;12.70;72.20;;;;;;10450908;28;20025;-55
2022/05/05 04:07:00;;;;;;;4.88;2.95;;;12.80;72.30;;;;;;10451806;28;20052;-56
2022/05/05 04:12:00;;;;;;;3.85;2.50;;;12.70;72.20;;;;;;10451257;28;20483;-56
2022/05/05 04:17:01;;;;;;;3.67;2.80;;;12.70;72.30;;;;;;10451074;28;20067;-56
2022/05/05 04:22:02;;;;;;;4.93;2.78;;;12.70;72.30;;;;;;10451293;28;20017;-56
2022/05/05 04:27:03;;;;;;;5.55;2.53;;;12.70;72.30;;;;;;10451036;28;20025;-56
2022/05/05 04:32:04;;;;;;;5.85;2.83;;;12.70;72.40;;;;;;10450880;28;20517;-56
2022/05/05 04:37:05;;;;;;;5.07;3.03;;;12.70;72.30;;;;;;10450706;28;20052;-56
2022/05/05 04:42:06;;;;;;;4.95;3.03;;;12.60;72.30;;;;;;10451114;28;20032;-56
2022/05/05 04:47:07;;;;;;;5.40;3.10;;;12.60;72.30;;;;;;10450602;28;20365;-56
2022/05/05 04:52:08;;;;;;;6.25;2.90;;;12.60;72.40;;;;;;10450272;28;20191;-56
2022/05/05 04:57:08;;;;;;;8.35;3.00;;;12.60;72.40;;;;;;10449711;28;20418;-56
2022/05/05 05:02:09;;;;;;;5.07;3.00;;;12.60;72.40;;;;;;10451350;28;20072;-56
2022/05/05 05:07:10;;;;;;;4.82;3.20;;;12.60;72.40;;;;;;10449788;28;20071;-56
2022/05/05 05:12:11;;;;;;;5.72;3.10;;;12.50;72.30;;;;;;10450886;28;20037;-57
2022/05/05 05:17:11;;;;;;;5.40;3.20;;;12.50;72.30;;;;;;10448896;28;20059;-56
2022/05/05 05:22:12;;;;;;;6.32;3.22;;;12.50;72.30;;;;;;10449008;28;20048;-56
2022/05/05 05:27:13;;;;;;;5.35;3.10;;;12.50;72.40;;;;;;10448929;28;20035;-57
2022/05/05 05:32:14;;;;;;;7.60;3.47;;;12.50;72.40;;;;;;10448719;28;20567;-55
2022/05/05 05:37:14;;;;;;;4.75;3.15;;;12.50;72.40;;;;;;10448094;28;20021;-56
2022/05/05 05:42:18;;;;;;;6.65;3.13;;;12.50;72.40;;;;;;10448453;28;20040;-56
2022/05/05 05:47:18;;;;;;;4.18;3.28;;;12.50;72.40;;;;;;10447633;28;20045;-56
2022/05/05 05:52:19;;;;;;;6.38;3.17;;;12.50;72.40;;;;;;10447987;28;20475;-57
2022/05/05 05:57:20;;;;;;;5.50;3.35;;;12.50;72.40;;;;;;10447349;28;20074;-56
2022/05/05 06:07:44;;;;;;;7.43;3.50;;;12.50;72.50;;;;;;10437589;28;20174;-55
2022/05/05 06:12:45;;;;;;;4.25;3.53;;;12.60;72.50;;;;;;10447137;28;20565;-54
2022/05/05 06:17:46;;;;;;;4.55;3.30;;;12.60;72.50;;;;;;10446872;28;20079;-54
2022/05/05 06:22:47;;;;;;;5.90;4.03;;;12.60;72.40;;;;;;10445008;28;20019;-56
2022/05/05 06:27:48;;;;;;;8.30;4.03;;;12.70;72.30;;;;;;10442380;28;20039;-55
2022/05/05 06:32:49;;;;;;;9.05;3.38;;;12.70;72.20;;;;;;10443093;28;20066;-61
2022/05/05 06:37:50;;;;;;;5.88;3.22;;;12.80;72.20;;;;;;10443533;28;20171;-57
2022/05/05 06:42:51;;;;;;;9.32;3.42;;;12.90;72.20;;;;;;10443930;28;20496;-54
2022/05/05 06:47:52;;;;;;;4.75;2.95;;;12.90;72.30;;;;;;10435261;28;20067;-57
2022/05/05 06:52:53;;;;;;;5.07;3.63;;;12.90;72.30;;;;;;10457461;28;20112;-57
2022/05/05 06:57:53;;;;;;;5.85;3.40;;;13.00;72.30;;;;;;10445669;28;20083;-54
2022/05/05 07:02:54;;;;;;;7.85;3.92;;;13.00;72.30;;;;;;10444236;28;20029;-53
2022/05/05 07:07:55;;;;;;;7.32;3.65;;;13.00;72.30;;;;;;10444081;28;20022;-57
2022/05/05 07:12:55;;;;;;;7.80;3.30;;;13.00;72.30;;;;;;10443824;28;20070;-57
2022/05/05 07:17:56;;;;;;;7.90;3.67;;;13.10;72.40;;;;;;10436718;28;20041;-56
2022/05/05 07:22:57;;;;;;;7.25;3.40;;;13.10;72.30;;;;;;10418341;28;20018;-54
2022/05/05 07:27:58;;;;;;;5.22;3.35;;;13.10;72.30;;;;;;10421390;28;20413;-57
2022/05/05 07:32:59;;;;;;;5.55;3.40;;;13.20;72.40;;;;;;10437570;28;20033;-55
2022/05/05 07:37:59;;;;;;;5.97;3.22;;;13.20;72.40;;;;;;10438214;28;20037;-57
2022/05/05 07:43:00;;;;;;;6.45;3.85;;;13.30;72.40;;;;;;10441788;28;20510;-56
2022/05/05 07:48:02;;;;;;;6.55;3.83;;;13.30;72.30;;;;;;10452153;28;20084;-54
2022/05/05 07:53:03;;;;;;;7.50;3.25;;;13.40;72.30;;;;;;10451815;28;20025;-56
2022/05/05 07:58:04;;;;;;;7.05;3.10;;;13.40;72.10;;;;;;10451414;28;20482;-56
2022/05/05 08:03:04;;;;;;;5.13;2.90;;;13.50;72.10;;;;;;10452385;28;20043;-56
2022/05/05 08:08:05;;;;;;;3.15;2.60;;;13.50;72.00;;;;;;10454430;28;20127;-52
2022/05/05 08:13:06;;;;;;;4.72;2.70;;;13.50;72.00;;;;;;10452086;28;20017;-55
2022/05/05 08:18:07;;;;;;;12.60;5.93;;;13.50;72.10;;;;;;10451301;28;20513;-53
2022/05/05 08:23:08;;;;;;;6.70;4.40;;;13.60;72.50;;;;;;10450586;28;20540;-52
2022/05/05 08:33:28;;;;;;;12.25;5.30;;;13.70;72.50;;;;;;10450504;28;20051;-55
2022/05/05 08:38:28;;;;;;;11.20;5.90;;;13.90;72.80;;;;;;10450130;28;20067;-55
2022/05/05 08:43:30;;;;;;;12.90;5.93;;;14.10;72.20;;;;;;10450425;28;20040;-58
2022/05/05 08:48:32;;;;;;;12.73;6.35;;;14.30;72.40;;;;;;10448926;28;20033;-53
2022/05/05 08:53:35;;;;;;;10.60;5.88;;;14.40;72.40;;;;;;10448828;28;20510;-53
2022/05/05 08:58:36;;;;;;;11.90;5.63;;;14.40;72.30;;;;;;10448408;28;20123;-53
2022/05/05 09:03:37;;;;;;;12.23;5.25;;;14.40;72.50;;;;;;10449860;28;20112;-52
2022/05/05 09:08:38;;;;;;;11.70;5.55;;;14.40;73.30;;;;;;10448320;28;20525;-53
2022/05/05 09:13:39;;;;;;;13.75;5.80;;;14.50;72.80;;;;;;10430449;28;20032;-56
2022/05/05 09:18:39;;;;;;;11.45;5.35;;;14.60;72.60;;;;;;10446419;28;20083;-53
2022/05/05 09:29:19;;;;;;;13.23;5.25;;;14.80;72.20;;;;;;10443446;28;20041;-54
2022/05/05 09:34:19;;;;;;;9.50;5.10;;;14.90;72.40;;;;;;10448628;28;20062;-53
2022/05/05 09:39:20;;;;;;;11.10;5.05;;;14.90;72.00;;;;;;10447554;28;20025;-52
2022/05/05 09:44:21;;;;;;;12.80;5.40;;;15.00;72.00;;;;;;10446763;28;20036;-54
2022/05/05 09:49:22;;;;;;;8.55;4.95;;;15.20;71.80;;;;;;10445141;28;20036;-54
2022/05/05 09:59:46;;;;;;;9.80;4.68;;;15.70;71.10;;;;;;10445329;28;20060;-53
2022/05/05 10:04:50;;;;;;;11.15;5.28;;;15.90;70.60;;;;;;10446985;28;20098;-58
2022/05/05 10:09:53;;;;;;;9.05;4.30;;;16.00;70.50;;;;;;10446822;28;20040;-54
2022/05/05 10:14:55;;;;;;;9.57;4.75;;;16.10;70.20;;;;;;10446612;28;20045;-52
2022/05/05 10:19:56;;;;;;;9.00;5.15;;;16.20;70.30;;;;;;10446940;28;20472;-54
2022/05/05 10:25:27;;;;;;;8.73;4.63;;;16.30;70.20;;;;;;10444891;28;20046;-52
2022/05/05 10:30:34;;;;;;;10.18;5.63;;;16.50;70.30;;;;;;10436222;28;20064;-55
2022/05/05 10:35:48;;;;;;;9.02;5.25;;;16.60;70.00;;;;;;10444933;28;20163;-54
2022/05/05 10:40:49;;;;;;;9.95;5.60;;;16.60;70.20;;;;;;10441356;28;20033;-52
2022/05/05 10:45:49;;;;;;;8.38;5.28;;;16.70;70.10;;;;;;10445092;28;20361;-54
2022/05/05 10:51:04;;;;;;;10.98;5.82;;;16.70;70.00;;;;;;10443072;28;20041;-54
2022/05/05 10:56:24;;;;;;;10.27;6.22;;;16.80;70.30;;;;;;10441983;28;20017;-55
2022/05/05 11:01:26;;;;;;;9.45;5.60;;;16.90;70.70;;;;;;10437675;28;20025;-53
2022/05/05 11:06:29;;;;;;;12.57;5.57;;;17.00;70.00;;;;;;10441745;28;20100;-54
2022/05/05 11:11:40;;;;;;;10.73;5.95;;;17.10;69.80;;;;;;10432144;28;20049;-51
2022/05/05 11:22:09;;;;;;;11.45;5.50;;;17.30;69.50;;;;;;10442372;28;20143;-53
2022/05/05 11:27:30;;;;;;;11.75;6.10;;;17.40;69.00;;;;;;10442655;28;20025;-52
2022/05/05 11:32:33;;;;;;;7.47;5.10;;;17.50;68.80;;;;;;10443603;28;20053;-55
2022/05/05 11:37:35;;;;;;;10.65;5.32;;;17.50;68.40;;;;;;10437540;28;20026;-54
2022/05/05 11:44:14;;;;;;;8.10;4.63;;;17.50;68.50;;;;;;10438492;28;20107;-53
2022/05/05 11:47:56;;;;;;;11.25;5.43;;;17.70;68.30;;;;;;10442274;28;20021;-54
2022/05/05 11:52:57;;;;;;;10.75;5.68;;;17.70;68.30;;;;;;10443060;28;20033;-54
2022/05/05 11:57:58;;;;;;;13.15;5.63;;;17.70;68.60;;;;;;10439109;28;20033;-54
2022/05/05 12:02:58;;;;;;;10.55;6.05;;;17.60;68.90;;;;;;10441169;28;20106;-54
2022/05/05 12:07:59;;;;;;;11.55;5.45;;;17.70;68.60;;;;;;10447990;28;20033;-55
2022/05/05 12:13:03;;;;;;;8.23;5.40;;;17.80;68.60;;;;;;10447699;28;20062;-54
2022/05/05 12:18:15;;;;;;;10.80;5.32;;;17.90;68.30;;;;;;10450758;28;20068;-54
2022/05/05 12:23:20;;;;;;;9.43;5.25;;;18.00;68.00;;;;;;10450971;28;20395;-54
2022/05/05 12:28:26;;;;;;;9.68;4.93;;;18.20;67.80;;;;;;10448753;28;20685;-54
2022/05/05 12:33:37;;;;;;;8.95;4.93;;;18.30;67.40;;;;;;10446802;28;20036;-55
2022/05/05 12:38:37;;;;;;;7.40;4.50;;;18.40;66.50;;;;;;10450496;28;20033;-56
2022/05/05 12:43:40;;;;;;;9.80;4.30;;;18.50;66.50;;;;;;10451151;28;20558;-54
2022/05/05 12:48:40;;;;;;;7.68;4.40;;;18.70;66.10;;;;;;10450306;28;20087;-54
2022/05/05 13:04:22;;;;;;;6.32;3.58;;;18.80;64.90;;;;;;10447681;28;20464;-54
2022/05/05 13:09:23;;;;;;;7.25;3.40;;;18.90;64.40;;;;;;10448240;28;20069;-53
2022/05/05 13:14:24;;;;;;;5.43;3.13;;;19.10;64.10;;;;;;10449672;28;20022;-54
2022/05/05 13:19:25;;;;;;;4.80;3.45;;;19.30;64.40;;;;;;10448001;28;20107;-54
2022/05/05 13:24:26;;;;;;;5.28;3.40;;;19.50;63.00;;;;;;10449093;28;20075;-54
2022/05/05 13:29:28;;;;;;;7.80;3.78;;;19.50;62.90;;;;;;10447812;28;20044;-55
2022/05/05 13:34:29;;;;;;;7.75;3.72;;;19.70;62.70;;;;;;10447181;28;20113;-54
2022/05/05 13:39:29;;;;;;;5.97;3.75;;;19.90;62.00;;;;;;10447938;28;20124;-55
2022/05/05 13:44:30;;;;;;;4.13;2.65;;;19.90;61.80;;;;;;10447576;28;20029;-57
2022/05/05 13:49:31;;;;;;;4.68;2.40;;;19.60;61.70;;;;;;10447533;28;20172;-57
2022/05/05 13:54:31;;;;;;;3.88;2.38;;;19.80;61.70;;;;;;10447428;28;20029;-57
2022/05/05 13:59:32;;;;;;;4.35;2.17;;;19.80;61.90;;;;;;10447714;28;20183;-56
2022/05/05 14:04:33;;;;;;;5.82;3.58;;;19.70;62.20;;;;;;10447266;28;20029;-57
2022/05/05 14:14:53;;;;;;;8.88;4.22;;;20.30;61.40;;;;;;10446531;28;21378;-57
2022/05/05 14:19:54;;;;;;;7.90;3.97;;;20.70;61.50;;;;;;10446442;28;20039;-56
2022/05/05 14:24:55;;;;;;;8.75;4.57;;;20.80;61.00;;;;;;10443694;28;20032;-57
2022/05/05 14:29:56;;;;;;;8.20;4.13;;;20.90;61.00;;;;;;10444791;28;20080;-55
2022/05/05 14:34:57;;;;;;;7.00;4.18;;;21.10;60.20;;;;;;10445294;28;20105;-55
2022/05/05 14:39:57;;;;;;;8.88;4.90;;;21.10;59.60;;;;;;10445089;28;20045;-54
2022/05/05 14:44:58;;;;;;;9.35;4.80;;;21.20;59.80;;;;;;10445089;28;20025;-55
2022/05/05 14:49:59;;;;;;;8.52;4.72;;;21.40;59.70;;;;;;10444581;28;20029;-55
2022/05/05 14:55:00;;;;;;;10.52;5.45;;;21.60;59.40;;;;;;10444849;28;20079;-55
2022/05/05 15:00:01;;;;;;;11.23;5.47;;;21.60;59.50;;;;;;10444862;28;20033;-55
2022/05/05 15:05:01;;;;;;;9.43;5.10;;;21.40;59.80;;;;;;10445031;28;20025;-55
2022/05/05 15:10:02;;;;;;;10.02;6.07;;;20.90;61.50;;;;;;10444837;28;20372;-56
2022/05/05 15:15:04;;;;;;;16.55;7.60;;;20.40;61.90;;;;;;10442365;28;20090;-55
2022/05/05 15:20:08;;;;;;;15.07;7.47;;;20.10;62.80;;;;;;10443461;28;20441;-56
2022/05/05 15:25:11;;;;;;;18.00;8.65;;;19.80;63.50;;;;;;10440786;28;20112;-56
2022/05/05 15:30:12;;;;;;;16.05;8.68;;;19.60;63.90;;;;;;10442982;28;20045;-54
2022/05/05 15:35:13;;;;;;;18.80;9.05;;;19.50;64.20;;;;;;10443552;28;20021;-56
2022/05/05 15:40:14;;;;;;;18.70;8.68;;;19.40;64.60;;;;;;10447856;28;20089;-55
2022/05/05 15:45:15;;;;;;;22.73;8.93;;;19.40;65.00;;;;;;10451474;28;20041;-56
2022/05/05 15:50:15;;;;;;;15.32;8.15;;;19.30;65.30;;;;;;10453310;28;20041;-56
2022/05/05 15:55:18;;;;;;;15.95;8.10;;;19.30;65.50;;;;;;10453655;28;20040;-56
2022/05/05 16:00:20;;;;;;;19.50;9.02;;;19.40;65.60;;;;;;10457632;28;20029;-56
2022/05/05 16:05:22;;;;;;;19.52;8.88;;;19.40;65.20;;;;;;10451508;28;20033;-53
2022/05/05 16:10:27;;;;;;;20.63;8.77;;;19.50;65.10;;;;;;10450441;28;20048;-55
2022/05/05 16:15:27;;;;;;;14.50;8.20;;;19.50;66.30;;;;;;10448401;28;20045;-54
2022/05/05 16:20:28;;;;;;;14.20;7.88;;;19.40;66.20;;;;;;10450218;28;20073;-57
2022/05/05 16:30:48;;;;;;;16.88;8.27;;;19.40;67.40;;;;;;10449418;28;20575;-56
2022/05/05 16:35:49;;;;;;;14.65;8.40;;;19.20;67.30;;;;;;10449364;28;20094;-56
2022/05/05 16:40:51;;;;;;;15.05;7.78;;;19.20;67.20;;;;;;10449016;28;20021;-55
2022/05/05 16:45:53;;;;;;;15.13;7.22;;;19.00;67.10;;;;;;10447027;28;20017;-54
2022/05/05 16:50:54;;;;;;;16.52;6.35;;;18.90;68.20;;;;;;10448389;28;20495;-56
2022/05/05 16:55:56;;;;;;;12.45;5.95;;;18.80;68.10;;;;;;10448300;28;20033;-56
2022/05/05 17:00:57;;;;;;;13.35;5.65;;;18.70;68.20;;;;;;10449160;28;20434;-60
2022/05/05 17:05:58;;;;;;;14.55;5.22;;;18.60;68.60;;;;;;10449490;28;20383;-55
2022/05/05 17:10:59;;;;;;;9.75;5.03;;;18.50;68.70;;;;;;10448856;28;20043;-56
2022/05/05 17:16:00;;;;;;;6.30;3.95;;;18.40;68.50;;;;;;10448731;28;20064;-57
2022/05/05 17:21:01;;;;;;;6.75;3.60;;;18.30;68.50;;;;;;10447505;28;20029;-56
2022/05/05 17:26:02;;;;;;;4.15;2.47;;;18.20;68.20;;;;;;10447363;28;20039;-55
2022/05/05 17:31:04;;;;;;;5.18;2.38;;;18.20;67.80;;;;;;10448013;28;20029;-55
2022/05/05 17:36:05;;;;;;;3.85;2.45;;;17.70;67.30;;;;;;10448086;28;20477;-58
2022/05/05 17:41:06;;;;;;;5.93;2.78;;;18.00;67.40;;;;;;10446045;28;20036;-55
2022/05/05 17:51:26;;;;;;;6.22;3.55;;;17.70;67.40;;;;;;10441870;28;20041;-56
2022/05/05 17:56:27;;;;;;;7.90;3.60;;;17.50;67.50;;;;;;10442272;28;20017;-56
2022/05/05 18:01:28;;;;;;;7.20;4.25;;;17.50;67.90;;;;;;10443236;28;20070;-56
2022/05/05 18:06:29;;;;;;;7.53;4.55;;;17.40;68.40;;;;;;10443948;28;20543;-55
2022/05/05 18:11:29;;;;;;;12.95;5.97;;;17.30;68.90;;;;;;10443806;28;20491;-53
2022/05/05 18:16:30;;;;;;;10.90;5.80;;;17.20;69.40;;;;;;10446591;28;20529;-56
2022/05/05 18:21:31;;;;;;;9.38;5.95;;;17.20;70.00;;;;;;10427771;28;20025;-55
2022/05/05 18:26:31;;;;;;;12.77;7.15;;;17.10;70.70;;;;;;10444761;28;20029;-51
2022/05/05 18:31:34;;;;;;;13.30;6.65;;;17.10;71.10;;;;;;10441251;28;20183;-55
2022/05/05 18:36:36;;;;;;;12.70;6.35;;;17.10;71.60;;;;;;10442391;28;20036;-56
2022/05/05 18:41:38;;;;;;;11.90;5.75;;;17.10;72.10;;;;;;10413887;28;20543;-55
2022/05/05 18:46:38;;;;;;;12.88;5.00;;;17.30;72.10;;;;;;10428520;28;20476;-56
2022/05/05 18:51:40;;;;;;;9.98;5.40;;;17.40;72.00;;;;;;10444501;28;20037;-55
2022/05/05 18:56:41;;;;;;;10.00;4.43;;;17.50;71.90;;;;;;10435183;28;20072;-56
2022/05/05 19:01:42;;;;;;;8.32;4.47;;;17.60;71.80;;;;;;10438189;28;20068;-55
2022/05/05 19:06:42;;;;;;;10.40;4.68;;;17.60;71.80;;;;;;10439892;28;20513;-54
2022/05/05 19:11:43;;;;;;;10.27;5.05;;;17.70;71.80;;;;;;10439643;28;20040;-56
2022/05/05 19:16:44;;;;;;;7.30;4.65;;;17.70;71.80;;;;;;10456183;28;20056;-56
2022/05/05 19:21:46;;;;;;;9.45;4.55;;;17.70;71.90;;;;;;10455670;28;20033;-56
2022/05/05 19:26:46;;;;;;;7.75;4.45;;;17.70;72.00;;;;;;10446638;28;20033;-56
2022/05/05 19:31:47;;;;;;;8.35;4.63;;;17.70;72.00;;;;;;10454661;28;20044;-56
2022/05/05 19:36:48;;;;;;;9.82;4.88;;;17.70;72.10;;;;;;10454923;28;20026;-56
2022/05/05 19:41:49;;;;;;;6.90;4.43;;;17.70;72.20;;;;;;10447231;28;20033;-55
2022/05/05 19:46:50;;;;;;;8.95;4.53;;;17.60;72.20;;;;;;10450523;28;20551;-56
2022/05/05 19:51:50;;;;;;;8.85;4.35;;;17.60;72.30;;;;;;10456755;28;20033;-56
2022/05/05 20:02:14;;;;;;;8.50;4.70;;;17.60;72.60;;;;;;10457560;28;20037;-56
2022/05/05 20:07:24;;;;;;;9.07;4.75;;;17.60;72.80;;;;;;10453624;28;20088;-56
2022/05/05 20:12:25;;;;;;;7.18;4.70;;;17.50;72.80;;;;;;10455397;28;20118;-56
2022/05/05 20:17:27;;;;;;;7.25;4.03;;;17.50;72.80;;;;;;10452588;28;20084;-56
2022/05/05 20:22:28;;;;;;;8.35;5.00;;;17.50;73.00;;;;;;10450261;28;20471;-56
2022/05/05 20:27:29;;;;;;;8.20;4.30;;;17.40;73.00;;;;;;10446963;28;20029;-56
2022/05/05 20:32:29;;;;;;;7.57;4.43;;;17.40;73.10;;;;;;10441205;28;20068;-57
2022/05/05 20:37:31;;;;;;;9.57;5.13;;;17.40;73.20;;;;;;10445182;28;20048;-57
2022/05/05 20:42:31;;;;;;;10.27;4.82;;;17.30;73.30;;;;;;10443809;28;20479;-54
2022/05/05 20:47:32;;;;;;;8.10;4.70;;;17.30;73.40;;;;;;10438283;28;20029;-56
2022/05/05 20:52:33;;;;;;;7.45;4.60;;;17.30;73.50;;;;;;10448016;28;20090;-56
2022/05/05 20:57:35;;;;;;;9.48;5.78;;;17.30;73.60;;;;;;10429581;28;20040;-57
2022/05/05 21:02:37;;;;;;;8.77;4.97;;;17.20;74.20;;;;;;10432229;28;20033;-56
2022/05/05 21:07:38;;;;;;;8.27;4.85;;;17.20;73.70;;;;;;10445093;28;20041;-56
2022/05/05 21:12:39;;;;;;;11.80;6.10;;;17.40;73.90;;;;;;10435597;28;20496;-56
2022/05/05 21:17:40;;;;;;;8.95;5.93;;;17.20;73.90;;;;;;10424207;28;20045;-55
2022/05/05 21:28:03;;;;;;;10.88;5.97;;;17.10;74.00;;;;;;10435895;28;20029;-57
2022/05/05 21:33:04;;;;;;;12.40;6.22;;;17.10;74.10;;;;;;10446915;28;20044;-56
2022/05/05 21:38:07;;;;;;;9.57;5.88;;;17.00;74.20;;;;;;10446578;28;20017;-56
2022/05/05 21:43:19;;;;;;;13.57;6.85;;;17.00;74.30;;;;;;10448046;28;20464;-56
2022/05/05 21:48:19;;;;;;;12.65;6.70;;;17.00;74.50;;;;;;10445024;28;20134;-56
2022/05/05 21:53:20;;;;;;;11.38;6.40;;;16.90;74.50;;;;;;10447355;28;20055;-56
2022/05/05 21:58:21;;;;;;;13.25;7.35;;;16.90;74.60;;;;;;10460823;28;20483;-56
2022/05/05 22:03:29;;;;;;;13.63;6.85;;;16.90;74.80;;;;;;10446105;28;20025;-56
2022/05/05 22:08:32;;;;;;;17.30;7.20;;;16.80;74.80;;;;;;10445889;28;20053;-55
2022/05/05 22:13:34;;;;;;;15.65;7.43;;;16.80;74.90;;;;;;10445648;28;20044;-56
2022/05/05 22:18:35;;;;;;;13.20;7.10;;;16.80;75.00;;;;;;10445108;28;20141;-56
2022/05/05 22:23:36;;;;;;;17.40;8.05;;;16.70;75.10;;;;;;10445533;28;20056;-56
2022/05/05 22:28:37;;;;;;;15.10;7.80;;;16.70;75.10;;;;;;10445565;28;20567;-57
2022/05/05 22:33:38;;;;;;;13.65;7.60;;;16.70;75.30;;;;;;10445613;28;20021;-56
2022/05/05 22:38:41;;;;;;;15.07;7.72;;;16.60;75.30;;;;;;10445193;28;20535;-57
2022/05/05 22:43:45;;;;;;;17.38;8.30;;;16.60;75.40;;;;;;10446856;28;20106;-56
2022/05/05 22:54:05;;;;;;;14.50;8.35;;;16.50;75.50;;;;;;10445127;28;20117;-56
2022/05/05 22:59:06;;;;;;;14.43;7.45;;;16.50;75.60;;;;;;10443519;28;20135;-56
2022/05/05 23:04:06;;;;;;;17.67;8.57;;;16.50;75.60;;;;;;10444234;28;20037;-53
2022/05/05 23:09:07;;;;;;;18.55;9.50;;;16.50;75.70;;;;;;10444797;28;20049;-55
2022/05/05 23:14:08;;;;;;;18.20;8.88;;;16.40;75.70;;;;;;10443991;28;20037;-55
2022/05/05 23:19:08;;;;;;;17.58;8.43;;;16.30;75.70;;;;;;10443438;28;20052;-55
2022/05/05 23:24:09;;;;;;;16.17;8.20;;;16.30;75.80;;;;;;10444152;28;20107;-55
2022/05/05 23:29:10;;;;;;;17.70;8.57;;;16.30;75.90;;;;;;10443796;28;20108;-55
2022/05/05 23:39:30;;;;;;;14.10;7.45;;;16.20;76.00;;;;;;10443343;28;20167;-55
2022/05/05 23:44:33;;;;;;;16.35;8.20;;;16.10;76.00;;;;;;10443826;28;20036;-55
2022/05/05 23:49:33;;;;;;;15.30;7.60;;;16.10;76.00;;;;;;10443345;28;20810;-55
2022/05/05 23:54:34;;;;;;;15.43;7.95;;;16.10;76.00;;;;;;10443361;28;20111;-56
2022/05/05 23:59:35;;;;;;;17.52;8.48;;;16.00;76.00;;;;;;10444266;28;20086;-56
